createdAt,value
2018-07-13T00:02:04.105Z,83.80
2018-07-13T00:04:32.540Z,83.90
2018-07-13T00:07:00.992Z,83.90
2018-07-13T00:09:29.418Z,83.90
2018-07-13T00:11:57.883Z,84.00
2018-07-13T00:14:26.610Z,84.10
2018-07-13T00:16:57.181Z,84.10
2018-07-13T00:19:26.000Z,84.20
2018-07-13T00:21:54.658Z,84.30
2018-07-13T00:24:23.127Z,84.50
2018-07-13T00:26:51.556Z,84.50
2018-07-13T00:29:20.019Z,84.30
2018-07-13T00:31:48.437Z,84.20
2018-07-13T00:34:16.948Z,84.20
2018-07-13T00:36:45.349Z,84.10
2018-07-13T00:39:14.845Z,84.00
2018-07-13T00:41:43.280Z,84.00
2018-07-13T00:44:11.830Z,83.80
2018-07-13T00:46:40.254Z,83.90
2018-07-13T00:49:08.691Z,83.80
2018-07-13T00:51:37.385Z,84.10
2018-07-13T00:54:05.828Z,84.20
2018-07-13T00:56:34.455Z,84.10
2018-07-13T00:59:02.912Z,83.80
2018-07-13T01:01:31.376Z,83.80
2018-07-13T01:03:59.800Z,84.40
2018-07-13T01:06:28.241Z,84.50
2018-07-13T01:08:56.853Z,84.50
2018-07-13T01:11:25.269Z,84.50
2018-07-13T01:13:53.716Z,84.40
2018-07-13T01:16:22.148Z,84.60
2018-07-13T01:18:50.620Z,84.80
2018-07-13T01:23:47.168Z,85.30
2018-07-13T01:26:15.586Z,85.40
2018-07-13T01:28:44.013Z,85.60
2018-07-13T01:31:12.437Z,85.30
2018-07-13T01:33:40.893Z,85.40
2018-07-13T01:36:09.313Z,85.30
2018-07-13T01:38:37.724Z,85.30
2018-07-13T01:41:06.145Z,85.70
2018-07-13T01:43:34.786Z,85.80
2018-07-13T01:48:31.342Z,86.20
2018-07-13T01:50:59.753Z,86.10
2018-07-13T01:53:28.197Z,86.30
2018-07-13T01:55:56.656Z,86.10
2018-07-13T01:58:25.094Z,86.00
2018-07-13T02:00:53.509Z,86.00
2018-07-13T02:03:21.965Z,85.80
2018-07-13T02:05:50.372Z,86.10
2018-07-13T02:08:18.826Z,85.90
2018-07-13T02:10:47.257Z,85.90
2018-07-13T02:13:15.888Z,85.70
2018-07-13T02:15:44.328Z,85.80
2018-07-13T02:18:12.753Z,85.90
2018-07-13T02:20:41.196Z,85.90
2018-07-13T02:23:09.605Z,85.80
2018-07-13T02:25:38.118Z,85.90
2018-07-13T02:28:06.526Z,86.00
2018-07-13T02:30:35.113Z,86.30
2018-07-13T02:33:03.564Z,86.50
2018-07-13T02:35:32.019Z,86.50
2018-07-13T02:38:00.553Z,86.70
2018-07-13T02:40:29.005Z,86.80
2018-07-13T02:42:57.628Z,86.80
2018-07-13T02:45:26.064Z,86.50
2018-07-13T02:47:54.522Z,86.60
2018-07-13T02:50:22.969Z,86.70
2018-07-13T02:52:51.421Z,86.60
2018-07-13T02:55:19.865Z,86.50
2018-07-13T02:57:48.285Z,86.50
2018-07-13T03:00:16.821Z,86.50
2018-07-13T03:02:45.236Z,86.30
2018-07-13T03:05:13.685Z,86.20
2018-07-13T03:07:42.112Z,86.30
2018-07-13T03:10:10.543Z,86.60
2018-07-13T03:12:38.965Z,86.60
2018-07-13T03:15:07.581Z,86.70
2018-07-13T03:17:36.068Z,86.70
2018-07-13T03:20:04.582Z,86.50
2018-07-13T03:22:33.008Z,86.20
2018-07-13T03:25:01.488Z,86.10
2018-07-13T03:27:29.922Z,86.10
2018-07-13T03:29:58.517Z,86.00
2018-07-13T03:32:26.965Z,85.70
2018-07-13T03:34:55.539Z,85.70
2018-07-13T03:37:24.228Z,85.70
2018-07-13T03:39:52.641Z,85.70
2018-07-13T03:42:21.052Z,86.00
2018-07-13T03:44:49.492Z,86.20
2018-07-13T03:47:18.040Z,86.20
2018-07-13T03:49:46.481Z,86.20
2018-07-13T03:52:14.889Z,86.20
2018-07-13T03:54:43.347Z,86.20
2018-07-13T03:57:11.761Z,86.20
2018-07-13T03:59:40.225Z,86.30
2018-07-13T04:02:08.623Z,86.30
2018-07-13T04:04:37.036Z,86.50
2018-07-13T04:07:05.820Z,86.70
2018-07-13T04:09:34.213Z,87.00
2018-07-13T04:12:02.680Z,87.00
2018-07-13T04:14:31.109Z,86.50
2018-07-13T04:19:27.714Z,86.60
2018-07-13T04:21:56.215Z,87.00
2018-07-13T04:24:24.749Z,87.00
2018-07-13T04:26:53.285Z,87.10
2018-07-13T04:29:21.803Z,87.20
2018-07-13T04:31:50.268Z,87.10
2018-07-13T04:36:47.093Z,87.40
2018-07-13T04:39:16.128Z,86.90
2018-07-13T04:41:44.648Z,86.80
2018-07-13T04:44:13.081Z,86.60
2018-07-13T04:46:41.565Z,86.50
2018-07-13T04:49:10.045Z,87.40
2018-07-13T04:51:38.586Z,87.20
2018-07-13T04:54:07.272Z,87.10
2018-07-13T04:56:35.808Z,86.90
2018-07-13T04:59:04.281Z,87.20
2018-07-13T05:01:32.796Z,87.20
2018-07-13T05:04:01.287Z,87.50
2018-07-13T05:06:29.813Z,87.60
2018-07-13T05:08:58.284Z,87.50
2018-07-13T05:11:26.792Z,87.60
2018-07-13T05:13:55.222Z,87.50
2018-07-13T05:16:23.665Z,87.60
2018-07-13T05:18:52.116Z,87.30
2018-07-13T05:21:20.692Z,87.30
2018-07-13T05:23:49.144Z,86.90
2018-07-13T05:26:17.688Z,86.90
2018-07-13T05:28:46.432Z,86.90
2018-07-13T05:31:15.233Z,87.00
2018-07-13T05:33:43.981Z,86.60
2018-07-13T05:36:12.496Z,86.30
2018-07-13T05:38:40.995Z,86.00
2018-07-13T05:41:09.504Z,85.80
2018-07-13T05:43:37.989Z,85.70
2018-07-13T05:46:06.594Z,85.40
2018-07-13T05:48:35.401Z,85.30
2018-07-13T05:51:03.927Z,85.20
2018-07-13T05:53:32.443Z,84.40
2018-07-13T05:56:00.970Z,84.10
2018-07-13T05:58:29.463Z,84.00
2018-07-13T06:00:58.006Z,83.10
2018-07-13T06:03:26.609Z,83.30
2018-07-13T06:05:55.123Z,83.30
2018-07-13T06:08:23.638Z,83.00
2018-07-13T06:10:52.174Z,81.80
2018-07-13T06:13:20.832Z,80.60
2018-07-13T06:15:49.298Z,79.70
2018-07-13T06:18:17.868Z,78.30
2018-07-13T06:20:46.384Z,77.00
2018-07-13T06:23:14.845Z,75.40
2018-07-13T06:25:43.297Z,74.50
2018-07-13T06:28:11.881Z,74.00
2018-07-13T06:30:40.360Z,73.30
2018-07-13T06:33:08.934Z,70.80
2018-07-13T06:35:37.370Z,70.80
2018-07-13T06:38:06.417Z,68.10
2018-07-13T06:40:34.961Z,67.70
2018-07-13T06:43:03.510Z,66.30
2018-07-13T06:45:35.805Z,65.20
2018-07-13T06:48:04.284Z,63.50
2018-07-13T06:50:32.760Z,62.90
2018-07-13T06:53:01.261Z,60.80
2018-07-13T06:55:29.693Z,61.30
2018-07-13T06:58:09.428Z,60.80
2018-07-13T07:00:57.629Z,57.20
2018-07-13T07:03:26.902Z,57.80
2018-07-13T07:06:00.333Z,58.10
2018-07-13T07:08:29.104Z,55.10
2018-07-13T07:10:58.201Z,55.60
2018-07-13T07:13:31.412Z,55.00
2018-07-13T07:16:00.174Z,51.90
2018-07-13T07:18:28.920Z,51.20
2018-07-13T07:20:58.136Z,51.50
2018-07-13T07:25:56.524Z,50.40
2018-07-13T07:28:25.146Z,53.20
2018-07-13T07:30:54.400Z,52.30
2018-07-13T07:33:23.132Z,51.20
2018-07-13T07:35:51.608Z,49.60
2018-07-13T07:38:20.101Z,48.90
2018-07-13T07:40:49.148Z,47.80
2018-07-13T07:43:18.260Z,48.30
2018-07-13T07:45:46.792Z,48.30
2018-07-13T07:48:15.308Z,49.90
2018-07-13T07:50:44.026Z,49.30
2018-07-13T07:53:12.479Z,50.40
2018-07-13T07:55:40.930Z,50.50
2018-07-13T07:58:09.359Z,48.30
2018-07-13T08:00:37.793Z,47.60
2018-07-13T08:03:06.462Z,49.10
2018-07-13T08:05:34.917Z,49.30
2018-07-13T08:08:03.367Z,47.50
2018-07-13T08:10:31.853Z,47.10
2018-07-13T08:13:00.249Z,44.80
2018-07-13T08:15:28.829Z,44.80
2018-07-13T08:17:57.232Z,45.00
2018-07-13T08:20:33.938Z,43.60
2018-07-13T08:23:05.628Z,43.30
2018-07-13T08:25:34.755Z,42.90
2018-07-13T08:28:04.201Z,44.50
2018-07-13T08:30:41.323Z,45.50
2018-07-13T08:33:09.801Z,45.00
2018-07-13T08:38:06.973Z,44.90
2018-07-13T08:40:35.480Z,44.20
2018-07-13T08:43:03.941Z,46.10
2018-07-13T08:45:32.500Z,49.50
2018-07-13T08:48:00.911Z,51.80
2018-07-13T08:50:29.701Z,51.80
2018-07-13T08:52:58.848Z,48.10
2018-07-13T08:55:27.506Z,47.10
2018-07-13T08:57:56.101Z,46.60
2018-07-13T09:00:24.905Z,47.20
2018-07-13T09:05:21.587Z,49.80
2018-07-13T09:07:50.066Z,53.00
2018-07-13T09:10:18.758Z,53.60
2018-07-13T09:12:47.289Z,54.80
2018-07-13T09:17:43.914Z,54.80
2018-07-13T09:20:13.352Z,55.80
2018-07-13T09:22:41.937Z,57.00
2018-07-13T09:25:11.159Z,60.40
2018-07-13T09:27:40.105Z,58.10
2018-07-13T09:30:09.617Z,51.00
2018-07-13T09:32:38.264Z,50.60
2018-07-13T09:35:06.928Z,48.20
2018-07-13T09:37:35.752Z,48.70
2018-07-13T09:40:04.528Z,47.60
2018-07-13T09:42:33.190Z,47.30
2018-07-13T09:45:01.671Z,47.30
2018-07-13T09:47:30.153Z,46.30
2018-07-13T09:49:58.641Z,46.10
2018-07-13T09:52:27.278Z,45.50
2018-07-13T09:54:55.773Z,46.70
2018-07-13T09:57:24.303Z,49.50
2018-07-13T09:59:52.818Z,50.90
2018-07-13T10:02:21.357Z,54.80
2018-07-13T10:04:49.806Z,54.10
2018-07-13T10:07:18.263Z,55.50
2018-07-13T10:09:46.737Z,55.60
2018-07-13T10:12:15.240Z,56.50
2018-07-13T10:14:43.744Z,57.60
2018-07-13T10:17:12.296Z,57.70
2018-07-13T10:19:40.825Z,57.80
2018-07-13T10:22:12.046Z,57.50
2018-07-13T10:27:09.693Z,57.30
2018-07-13T10:29:41.747Z,56.20
2018-07-13T10:32:10.417Z,54.90
2018-07-13T10:34:38.939Z,53.50
2018-07-13T10:37:07.460Z,51.00
2018-07-13T10:39:35.903Z,50.90
2018-07-13T10:42:04.392Z,48.90
2018-07-13T10:44:32.788Z,47.20
2018-07-13T10:47:01.261Z,44.60
2018-07-13T10:49:29.849Z,44.90
2018-07-13T10:51:58.350Z,45.20
2018-07-13T10:54:26.765Z,45.70
2018-07-13T10:56:55.250Z,49.30
2018-07-13T10:59:23.656Z,49.70
2018-07-13T11:01:52.149Z,51.00
2018-07-13T11:04:20.592Z,51.30
2018-07-13T11:06:49.048Z,52.40
2018-07-13T11:09:17.501Z,53.50
2018-07-13T11:11:45.973Z,53.20
2018-07-13T11:14:14.385Z,54.70
2018-07-13T11:16:42.821Z,55.90
2018-07-13T11:19:11.235Z,56.60
2018-07-13T11:21:39.682Z,56.80
2018-07-13T11:24:08.299Z,57.60
2018-07-13T11:26:36.733Z,57.30
2018-07-13T11:29:05.173Z,56.70
2018-07-13T11:31:33.620Z,56.70
2018-07-13T11:34:02.096Z,56.00
2018-07-13T11:36:30.669Z,56.60
2018-07-13T11:38:59.125Z,57.40
2018-07-13T11:41:27.600Z,57.70
2018-07-13T11:43:56.005Z,57.60
2018-07-13T11:46:24.441Z,58.20
2018-07-13T11:48:52.879Z,58.50
2018-07-13T11:51:21.296Z,57.70
2018-07-13T11:53:49.837Z,57.50
2018-07-13T11:56:18.273Z,57.50
2018-07-13T11:58:46.737Z,59.10
2018-07-13T12:01:15.156Z,58.60
2018-07-13T12:03:43.817Z,59.00
2018-07-13T12:06:12.456Z,58.90
2018-07-13T12:08:40.900Z,59.10
2018-07-13T12:11:09.538Z,58.90
2018-07-13T12:13:37.987Z,59.20
2018-07-13T12:16:06.472Z,58.90
2018-07-13T12:18:34.933Z,58.10
2018-07-13T12:21:03.360Z,57.70
2018-07-13T12:23:32.012Z,57.90
2018-07-13T12:26:00.423Z,57.90
2018-07-13T12:28:28.856Z,57.40
2018-07-13T12:30:57.267Z,59.10
2018-07-13T12:33:25.756Z,59.20
2018-07-13T12:35:54.163Z,59.30
2018-07-13T12:40:50.698Z,60.20
2018-07-13T12:43:19.136Z,59.50
2018-07-13T12:45:47.545Z,59.20
2018-07-13T12:48:15.968Z,59.30
2018-07-13T12:50:44.372Z,58.40
2018-07-13T12:53:12.898Z,59.00
2018-07-13T12:55:41.317Z,58.90
2018-07-13T12:58:09.823Z,59.20
2018-07-13T13:00:38.244Z,58.40
2018-07-13T13:03:06.712Z,58.30
2018-07-13T13:05:35.141Z,59.10
2018-07-13T13:08:03.727Z,58.40
2018-07-13T13:10:32.201Z,58.30
2018-07-13T13:13:00.638Z,59.10
2018-07-13T13:15:29.053Z,58.20
2018-07-13T13:17:57.512Z,58.60
2018-07-13T13:20:25.949Z,58.40
2018-07-13T13:22:54.373Z,57.70
2018-07-13T13:25:22.848Z,59.20
2018-07-13T13:27:51.409Z,59.10
2018-07-13T13:30:19.857Z,59.30
2018-07-13T13:32:48.289Z,57.70
2018-07-13T13:35:16.817Z,58.90
2018-07-13T13:37:45.222Z,59.20
2018-07-13T13:40:13.678Z,58.70
2018-07-13T13:42:42.112Z,59.30
2018-07-13T13:45:10.637Z,59.20
2018-07-13T13:47:39.048Z,59.20
2018-07-13T13:50:07.798Z,58.90
2018-07-13T13:52:36.212Z,57.80
2018-07-13T13:55:04.721Z,57.70
2018-07-13T13:57:33.229Z,56.80
2018-07-13T14:00:01.689Z,57.50
2018-07-13T14:02:30.239Z,57.50
2018-07-13T14:04:58.785Z,57.50
2018-07-13T14:07:27.208Z,57.90
2018-07-13T14:12:23.855Z,58.40
2018-07-13T14:14:52.476Z,57.80
2018-07-13T14:17:20.958Z,56.60
2018-07-13T14:19:49.396Z,57.30
2018-07-13T14:22:17.849Z,58.10
2018-07-13T14:24:46.299Z,58.70
2018-07-13T14:27:14.708Z,58.30
2018-07-13T14:29:43.157Z,57.20
2018-07-13T14:32:11.572Z,57.30
2018-07-13T14:34:40.073Z,57.30
2018-07-13T14:37:08.483Z,58.60
2018-07-13T14:39:36.929Z,59.50
2018-07-13T14:42:05.365Z,59.60
2018-07-13T14:44:33.795Z,59.10
2018-07-13T14:47:02.326Z,58.90
2018-07-13T14:49:30.700Z,58.10
2018-07-13T14:51:59.164Z,57.90
2018-07-13T14:54:27.674Z,59.00
2018-07-13T14:56:56.072Z,59.00
2018-07-13T14:59:24.498Z,59.20
2018-07-13T15:01:52.948Z,59.10
2018-07-13T15:04:21.366Z,58.30
2018-07-13T15:06:49.918Z,58.70
2018-07-13T15:09:18.305Z,58.60
2018-07-13T15:11:46.774Z,58.60
2018-07-13T15:14:15.184Z,58.40
2018-07-13T15:16:43.600Z,58.20
2018-07-13T15:19:12.121Z,59.20
2018-07-13T15:21:40.563Z,59.50
2018-07-13T15:24:08.997Z,59.00
2018-07-13T15:26:37.444Z,59.50
2018-07-13T15:29:05.997Z,59.20
2018-07-13T15:31:34.387Z,58.70
2018-07-13T15:34:02.819Z,58.50
2018-07-13T15:36:31.320Z,58.60
2018-07-13T15:38:59.734Z,59.20
2018-07-13T15:41:28.180Z,59.20
2018-07-13T15:43:56.596Z,58.60
2018-07-13T15:46:25.023Z,58.50
2018-07-13T15:48:53.505Z,59.60
2018-07-13T15:51:21.974Z,59.20
2018-07-13T15:53:50.381Z,59.20
2018-07-13T15:56:18.821Z,58.60
2018-07-13T15:58:47.353Z,58.50
2018-07-13T16:01:15.732Z,59.00
2018-07-13T16:03:44.147Z,58.60
2018-07-13T16:06:12.580Z,58.40
2018-07-13T16:08:40.964Z,58.20
2018-07-13T16:11:09.441Z,58.20
2018-07-13T16:13:38.959Z,58.50
2018-07-13T16:16:07.416Z,59.00
2018-07-13T16:18:35.816Z,59.20
2018-07-13T16:21:04.269Z,59.90
2018-07-13T16:23:32.702Z,60.10
2018-07-13T16:26:01.128Z,59.80
2018-07-13T16:28:29.551Z,59.10
2018-07-13T16:30:58.013Z,59.10
2018-07-13T16:33:26.446Z,59.20
2018-07-13T16:35:54.916Z,59.90
2018-07-13T16:38:23.300Z,59.50
2018-07-13T16:40:51.849Z,59.30
2018-07-13T16:43:20.251Z,59.90
2018-07-13T16:45:48.665Z,59.90
2018-07-13T16:48:17.110Z,60.00
2018-07-13T16:50:45.603Z,59.80
2018-07-13T16:53:14.117Z,59.80
2018-07-13T16:55:42.604Z,60.50
2018-07-13T16:58:11.038Z,60.30
2018-07-13T17:00:40.045Z,60.50
2018-07-13T17:05:36.657Z,61.10
2018-07-13T17:08:05.217Z,61.10
2018-07-13T17:10:33.693Z,61.60
2018-07-13T17:13:02.168Z,61.90
2018-07-13T17:15:30.590Z,61.40
2018-07-13T17:17:59.039Z,61.20
2018-07-13T17:20:27.646Z,61.30
2018-07-13T17:22:56.048Z,61.20
2018-07-13T17:25:24.452Z,61.20
2018-07-13T17:27:53.165Z,61.50
2018-07-13T17:30:21.620Z,61.60
2018-07-13T17:32:50.081Z,61.40
2018-07-13T17:35:18.537Z,61.70
2018-07-13T17:37:47.022Z,62.10
2018-07-13T17:40:15.469Z,61.90
2018-07-13T17:42:44.162Z,62.50
2018-07-13T17:45:12.581Z,62.80
2018-07-13T17:47:41.047Z,62.40
2018-07-13T17:50:09.514Z,62.30
2018-07-13T17:52:37.973Z,62.50
2018-07-13T17:55:06.411Z,62.60
2018-07-13T17:57:34.901Z,62.40
2018-07-13T18:00:03.382Z,62.60
2018-07-13T18:02:31.892Z,62.30
2018-07-13T18:05:00.294Z,62.70
2018-07-13T18:07:28.739Z,62.60
2018-07-13T18:09:57.323Z,62.70
2018-07-13T18:12:25.801Z,62.60
2018-07-13T18:14:54.233Z,63.20
2018-07-13T18:17:22.693Z,62.90
2018-07-13T18:19:51.154Z,62.70
2018-07-13T18:22:19.590Z,62.80
2018-07-13T18:24:47.999Z,63.00
2018-07-13T18:27:16.649Z,63.20
2018-07-13T18:29:45.069Z,63.80
2018-07-13T18:32:13.556Z,63.90
2018-07-13T18:34:41.998Z,64.20
2018-07-13T18:39:38.628Z,64.60
2018-07-13T18:42:07.061Z,64.90
2018-07-13T18:44:35.509Z,65.30
2018-07-13T18:47:03.922Z,65.70
2018-07-13T18:49:32.592Z,65.90
2018-07-13T18:52:01.009Z,66.50
2018-07-13T18:54:29.449Z,66.90
2018-07-13T18:56:57.850Z,67.10
2018-07-13T18:59:26.281Z,67.70
2018-07-13T19:01:54.717Z,68.10
2018-07-13T19:04:23.347Z,68.20
2018-07-13T19:06:51.775Z,68.80
2018-07-13T19:09:20.255Z,68.90
2018-07-13T19:14:17.049Z,69.60
2018-07-13T19:16:45.502Z,69.70
2018-07-13T19:19:13.957Z,69.80
2018-07-13T19:21:42.360Z,70.30
2018-07-13T19:24:10.985Z,70.50
2018-07-13T19:26:39.388Z,70.80
2018-07-13T19:29:07.823Z,70.90
2018-07-13T19:31:36.231Z,71.10
2018-07-13T19:34:04.676Z,71.30
2018-07-13T19:36:33.165Z,71.50
2018-07-13T19:39:01.541Z,71.60
2018-07-13T19:41:30.073Z,71.80
2018-07-13T19:43:58.605Z,71.90
2018-07-13T19:46:27.099Z,72.30
2018-07-13T19:48:55.539Z,73.80
2018-07-13T19:51:23.936Z,73.80
2018-07-13T19:53:52.383Z,74.20
2018-07-13T19:56:20.792Z,74.50
2018-07-13T19:58:49.351Z,74.60
2018-07-13T20:01:17.750Z,74.70
2018-07-13T20:03:46.176Z,74.90
2018-07-13T20:06:14.581Z,74.80
2018-07-13T20:08:42.996Z,75.20
2018-07-13T20:11:11.551Z,75.10
2018-07-13T20:13:39.981Z,75.20
2018-07-13T20:16:08.415Z,75.30
2018-07-13T20:18:36.856Z,75.30
2018-07-13T20:21:05.288Z,75.40
2018-07-13T20:23:33.684Z,75.40
2018-07-13T20:26:02.166Z,75.20
2018-07-13T20:28:30.717Z,75.50
2018-07-13T20:30:59.301Z,75.50
2018-07-13T20:33:27.840Z,75.50
2018-07-13T20:35:56.243Z,75.70
2018-07-13T20:38:24.812Z,75.80
2018-07-13T20:40:54.060Z,76.10
2018-07-13T20:43:22.514Z,76.30
2018-07-13T20:45:51.158Z,76.60
2018-07-13T20:48:19.584Z,76.70
2018-07-13T20:53:16.182Z,77.00
2018-07-13T20:55:44.648Z,77.00
2018-07-13T20:58:13.073Z,77.00
2018-07-13T21:00:41.527Z,77.00
2018-07-13T21:03:09.949Z,77.10
2018-07-13T21:05:38.401Z,77.10
2018-07-13T21:08:06.936Z,77.10
2018-07-13T21:10:35.377Z,77.10
2018-07-13T21:13:03.840Z,77.30
2018-07-13T21:15:32.386Z,77.50
2018-07-13T21:18:00.832Z,77.50
2018-07-13T21:20:29.280Z,77.70
2018-07-13T21:22:57.754Z,78.10
2018-07-13T21:25:26.206Z,78.20
2018-07-13T21:27:54.601Z,78.20
2018-07-13T21:30:23.073Z,78.40
2018-07-13T21:32:51.683Z,78.60
2018-07-13T21:35:20.134Z,78.60
2018-07-13T21:37:48.538Z,79.00
2018-07-13T21:40:17.125Z,79.00
2018-07-13T21:42:45.540Z,79.00
2018-07-13T21:45:14.003Z,79.00
2018-07-13T21:47:42.412Z,79.20
2018-07-13T21:50:10.850Z,79.40
2018-07-13T21:52:39.264Z,79.50
2018-07-13T21:55:07.675Z,79.40
2018-07-13T21:57:36.154Z,79.40
2018-07-13T22:02:33.360Z,79.60
2018-07-13T22:05:01.638Z,79.50
2018-07-13T22:07:30.389Z,79.20
2018-07-13T22:09:58.816Z,79.10
2018-07-13T22:12:27.357Z,79.20
2018-07-13T22:14:55.755Z,79.40
2018-07-13T22:17:24.214Z,79.60
2018-07-13T22:19:52.638Z,79.50
2018-07-13T22:22:21.110Z,79.60
2018-07-13T22:24:49.538Z,79.60
2018-07-13T22:27:18.016Z,79.70
2018-07-13T22:29:46.428Z,79.50
2018-07-13T22:32:14.908Z,79.60
2018-07-13T22:34:43.325Z,79.80
2018-07-13T22:37:11.769Z,80.40
2018-07-13T22:39:40.173Z,80.80
2018-07-13T22:42:08.769Z,81.00
2018-07-13T22:44:37.160Z,81.00
2018-07-13T22:47:05.844Z,81.00
2018-07-13T22:49:34.275Z,80.80
2018-07-13T22:52:02.729Z,80.50
2018-07-13T22:54:31.171Z,80.40
2018-07-13T22:56:59.617Z,80.40
2018-07-13T22:59:28.096Z,80.40
2018-07-13T23:01:56.540Z,80.50
2018-07-13T23:04:24.958Z,80.50
2018-07-13T23:06:53.474Z,80.50
2018-07-13T23:09:21.884Z,80.40
2018-07-13T23:11:50.503Z,80.40
2018-07-13T23:14:19.020Z,80.40
2018-07-13T23:16:47.472Z,80.30
2018-07-13T23:19:16.784Z,80.30
2018-07-13T23:21:45.227Z,80.30
2018-07-13T23:24:13.660Z,80.20
2018-07-13T23:26:42.093Z,81.30
2018-07-13T23:29:10.849Z,81.10
2018-07-13T23:31:39.283Z,81.30
2018-07-13T23:34:07.881Z,81.20
2018-07-13T23:36:36.320Z,81.20
2018-07-13T23:39:05.368Z,81.40
2018-07-13T23:41:33.918Z,81.20
2018-07-13T23:44:02.355Z,81.30
2018-07-13T23:46:30.829Z,81.90
2018-07-13T23:48:59.287Z,82.10
2018-07-13T23:53:55.925Z,82.60
2018-07-13T23:56:24.408Z,82.50
2018-07-13T23:58:52.864Z,82.40
